createdAt,value
2023-05-02T00:00:45.480Z,2.40
2023-05-02T00:03:17.618Z,2.80
2023-05-02T00:05:45.651Z,3.00
2023-05-02T00:08:13.928Z,3.00
2023-05-02T00:10:41.668Z,2.90
2023-05-02T00:13:09.479Z,2.40
2023-05-02T00:15:37.206Z,2.30
2023-05-02T00:18:05.061Z,2.40
2023-05-02T00:20:33.313Z,2.30
2023-05-02T00:23:01.032Z,2.30
2023-05-02T00:25:28.905Z,2.10
2023-05-02T00:27:57.004Z,2.40
2023-05-02T00:30:24.755Z,2.70
2023-05-02T00:32:54.407Z,2.30
2023-05-02T00:35:22.337Z,2.10
2023-05-02T00:37:50.341Z,2.10
2023-05-02T00:40:18.327Z,2.30
2023-05-02T00:42:46.773Z,2.50
2023-05-02T00:45:14.592Z,2.10
2023-05-02T00:47:42.401Z,1.90
2023-05-02T00:50:10.662Z,2.50
2023-05-02T00:52:38.554Z,2.60
2023-05-02T00:55:06.856Z,2.20
2023-05-02T00:57:34.664Z,2.40
2023-05-02T01:00:05.080Z,2.10
2023-05-02T01:02:37.066Z,2.50
2023-05-02T01:05:25.706Z,3.20
2023-05-02T01:08:15.012Z,2.20
2023-05-02T01:10:57.311Z,2.30
2023-05-02T01:13:32.985Z,2.50
2023-05-02T01:16:03.568Z,3.10
2023-05-02T01:18:36.818Z,2.60
2023-05-02T01:21:08.290Z,2.60
2023-05-02T01:24:35.044Z,2.80
2023-05-02T01:27:18.736Z,2.60
2023-05-02T01:29:49.893Z,3.00
2023-05-02T01:32:23.314Z,3.30
2023-05-02T01:34:53.325Z,2.70
2023-05-02T01:37:24.131Z,2.90
2023-05-02T01:39:54.441Z,2.90
2023-05-02T01:42:25.668Z,3.20
2023-05-02T01:44:56.634Z,2.70
2023-05-02T01:47:29.375Z,2.70
2023-05-02T01:49:59.675Z,2.50
2023-05-02T01:52:30.423Z,2.60
2023-05-02T01:57:27.566Z,2.70
2023-05-02T01:59:57.247Z,3.00
2023-05-02T02:02:27.969Z,2.50
2023-05-02T02:04:57.785Z,3.00
2023-05-02T02:07:25.694Z,2.70
2023-05-02T02:09:53.679Z,2.70
2023-05-02T02:12:28.479Z,2.60
2023-05-02T02:15:12.433Z,2.50
2023-05-02T02:17:44.831Z,2.70
2023-05-02T02:20:15.239Z,2.40
2023-05-02T02:22:44.157Z,3.00
2023-05-02T02:25:14.709Z,2.40
2023-05-02T02:27:43.782Z,2.80
2023-05-02T02:30:12.084Z,2.50
2023-05-02T02:32:39.904Z,3.20
2023-05-02T02:35:08.399Z,2.60
2023-05-02T02:37:43.114Z,3.10
2023-05-02T02:40:31.750Z,3.00
2023-05-02T02:43:16.203Z,2.50
2023-05-02T02:46:06.957Z,2.90
2023-05-02T02:48:43.432Z,2.90
2023-05-02T02:51:16.118Z,2.80
2023-05-02T02:54:15.372Z,2.80
2023-05-02T02:56:51.019Z,2.70
2023-05-02T02:59:41.436Z,2.60
2023-05-02T03:02:15.098Z,3.10
2023-05-02T03:04:44.424Z,3.20
2023-05-02T03:07:12.514Z,3.00
2023-05-02T03:09:41.904Z,2.90
2023-05-02T03:12:10.503Z,2.60
2023-05-02T03:14:39.567Z,3.00
2023-05-02T03:17:10.752Z,3.00
2023-05-02T03:19:38.923Z,3.20
2023-05-02T03:22:06.963Z,3.50
2023-05-02T03:24:35.208Z,3.00
2023-05-02T03:27:04.581Z,3.10
2023-05-02T03:29:35.122Z,3.20
2023-05-02T03:32:03.155Z,3.00
2023-05-02T03:34:31.167Z,3.30
2023-05-02T03:36:59.587Z,3.30
2023-05-02T03:39:27.627Z,3.00
2023-05-02T03:41:55.472Z,3.10
2023-05-02T03:44:23.468Z,3.20
2023-05-02T03:46:51.821Z,2.60
2023-05-02T03:49:19.971Z,3.00
2023-05-02T03:51:48.171Z,2.90
2023-05-02T03:54:16.855Z,3.20
2023-05-02T03:56:45.331Z,3.50
2023-05-02T03:59:22.290Z,3.00
2023-05-02T04:01:50.959Z,2.80
2023-05-02T04:04:21.397Z,2.80
2023-05-02T04:06:52.307Z,2.70
2023-05-02T04:09:25.079Z,2.60
2023-05-02T04:11:57.432Z,3.50
2023-05-02T04:14:25.554Z,3.20
2023-05-02T04:16:54.925Z,2.70
2023-05-02T04:19:35.215Z,3.20
2023-05-02T04:22:03.882Z,2.60
2023-05-02T04:24:34.739Z,3.20
2023-05-02T04:27:02.999Z,3.00
2023-05-02T04:29:30.894Z,3.50
2023-05-02T04:31:59.023Z,3.40
2023-05-02T04:34:30.357Z,4.10
2023-05-02T04:36:58.100Z,3.40
2023-05-02T04:39:26.560Z,4.10
2023-05-02T04:42:03.907Z,2.70
2023-05-02T04:44:35.417Z,3.10
2023-05-02T04:47:04.642Z,3.20
2023-05-02T04:49:33.367Z,3.20
2023-05-02T04:52:01.349Z,2.90
2023-05-02T04:54:29.215Z,3.30
2023-05-02T04:56:57.280Z,2.80
2023-05-02T04:59:25.694Z,2.50
2023-05-02T05:01:53.673Z,2.60
2023-05-02T05:04:21.850Z,3.20
2023-05-02T05:06:50.131Z,2.30
2023-05-02T05:09:18.806Z,3.00
2023-05-02T05:11:46.847Z,2.90
2023-05-02T05:14:16.029Z,3.10
2023-05-02T05:16:49.005Z,2.90
2023-05-02T05:19:17.253Z,2.60
2023-05-02T05:21:45.155Z,2.50
2023-05-02T05:24:15.037Z,2.80
2023-05-02T05:26:43.379Z,3.30
2023-05-02T05:29:11.715Z,2.80
2023-05-02T05:31:42.676Z,3.00
2023-05-02T05:34:14.001Z,2.70
2023-05-02T05:36:42.815Z,3.10
2023-05-02T05:39:10.903Z,2.90
2023-05-02T05:41:40.258Z,2.70
2023-05-02T05:44:10.890Z,2.70
2023-05-02T05:46:38.720Z,3.50
2023-05-02T05:49:07.852Z,2.50
2023-05-02T05:51:36.382Z,3.20
2023-05-02T05:54:04.336Z,3.10
2023-05-02T05:56:32.415Z,2.60
2023-05-02T05:59:09.063Z,2.80
2023-05-02T06:01:36.935Z,3.10
2023-05-02T06:04:06.635Z,3.30
2023-05-02T06:06:37.587Z,2.50
2023-05-02T06:09:05.501Z,3.10
2023-05-02T06:11:33.969Z,3.00
2023-05-02T06:14:02.112Z,2.30
2023-05-02T06:16:30.133Z,3.10
2023-05-02T06:18:58.113Z,2.70
2023-05-02T06:21:26.395Z,2.70
2023-05-02T06:23:54.188Z,2.40
2023-05-02T06:26:22.170Z,2.10
2023-05-02T06:28:49.891Z,2.70
2023-05-02T06:31:17.773Z,2.70
2023-05-02T06:33:45.506Z,2.40
2023-05-02T06:36:13.408Z,2.80
2023-05-02T06:38:41.490Z,2.00
2023-05-02T06:41:17.307Z,2.60
2023-05-02T06:43:45.903Z,2.30
2023-05-02T06:46:13.835Z,2.70
2023-05-02T06:48:43.349Z,2.20
2023-05-02T06:51:11.426Z,2.30
2023-05-02T06:53:39.208Z,2.50
2023-05-02T06:56:07.177Z,2.30
2023-05-02T06:58:34.933Z,2.20
2023-05-02T07:01:02.870Z,2.10
2023-05-02T07:03:30.915Z,1.70
2023-05-02T07:05:58.929Z,1.90
2023-05-02T07:08:26.822Z,1.60
2023-05-02T07:10:54.647Z,2.10
2023-05-02T07:13:22.399Z,2.20
2023-05-02T07:15:50.233Z,2.00
2023-05-02T07:18:18.174Z,2.20
2023-05-02T07:20:46.034Z,2.10
2023-05-02T07:23:13.978Z,2.30
2023-05-02T07:25:41.816Z,2.10
2023-05-02T07:28:09.731Z,2.30
2023-05-02T07:30:37.448Z,1.80
2023-05-02T07:33:05.417Z,2.00
2023-05-02T07:35:33.475Z,1.60
2023-05-02T07:38:01.236Z,1.50
2023-05-02T07:40:29.035Z,2.10
2023-05-02T07:42:58.508Z,1.60
2023-05-02T07:45:26.333Z,2.00
2023-05-02T07:47:54.107Z,1.70
2023-05-02T07:50:22.561Z,1.80
2023-05-02T07:52:50.554Z,2.00
2023-05-02T07:55:18.350Z,1.90
2023-05-02T07:57:46.162Z,1.90
2023-05-02T08:00:14.763Z,2.00
2023-05-02T08:02:42.983Z,2.10
2023-05-02T08:05:10.914Z,2.50
2023-05-02T08:07:38.713Z,1.80
2023-05-02T08:10:07.404Z,2.20
2023-05-02T08:12:42.118Z,2.10
2023-05-02T08:15:13.716Z,2.80
2023-05-02T08:17:41.456Z,2.10
2023-05-02T08:20:09.543Z,2.00
2023-05-02T08:22:37.226Z,1.90
2023-05-02T08:25:05.316Z,2.00
2023-05-02T08:27:35.285Z,2.20
2023-05-02T08:30:03.628Z,2.50
2023-05-02T08:32:32.644Z,2.40
2023-05-02T08:35:00.517Z,2.40
2023-05-02T08:40:42.023Z,2.30
2023-05-02T08:43:16.650Z,2.20
2023-05-02T08:45:45.503Z,2.20
2023-05-02T08:48:14.996Z,2.30
2023-05-02T08:50:48.261Z,2.70
2023-05-02T08:53:18.116Z,2.50
2023-05-02T08:55:46.858Z,2.30
2023-05-02T08:58:15.483Z,2.30
2023-05-02T09:00:48.997Z,2.60
2023-05-02T09:03:42.469Z,2.70
2023-05-02T09:06:13.192Z,2.70
2023-05-02T09:08:42.896Z,2.40
2023-05-02T09:11:12.528Z,2.30
2023-05-02T09:13:51.538Z,2.60
2023-05-02T09:16:22.730Z,3.00
2023-05-02T09:18:53.071Z,2.60
2023-05-02T09:21:22.908Z,3.00
2023-05-02T09:24:00.345Z,2.40
2023-05-02T09:26:32.210Z,2.70
2023-05-02T09:29:06.698Z,2.90
2023-05-02T09:34:14.015Z,3.90
2023-05-02T09:36:54.605Z,3.40
2023-05-02T09:39:29.434Z,3.20
2023-05-02T09:41:58.803Z,3.30
2023-05-02T09:44:37.347Z,3.50
2023-05-02T09:47:07.012Z,3.40
2023-05-02T09:49:46.535Z,3.30
2023-05-02T09:52:16.389Z,3.40
2023-05-02T09:54:47.233Z,3.20
2023-05-02T09:57:16.744Z,3.70
2023-05-02T09:59:58.282Z,2.80
2023-05-02T10:02:26.568Z,3.60
2023-05-02T10:04:57.525Z,2.50
2023-05-02T10:07:26.525Z,3.00
2023-05-02T10:09:58.227Z,3.00
2023-05-02T10:12:28.035Z,2.90
2023-05-02T10:15:04.759Z,3.10
2023-05-02T10:17:42.265Z,2.70
2023-05-02T10:30:47.751Z,3.30
2023-05-02T10:35:48.509Z,2.20
2023-05-02T10:38:19.791Z,2.50
2023-05-02T10:41:05.761Z,2.40
2023-05-02T10:43:36.657Z,3.60
2023-05-02T10:46:30.284Z,3.30
2023-05-02T10:49:09.159Z,3.50
2023-05-02T10:51:41.882Z,3.30
2023-05-02T10:54:19.386Z,3.30
2023-05-02T10:57:03.887Z,3.40
2023-05-02T10:59:42.695Z,3.30
2023-05-02T11:02:28.233Z,4.00
2023-05-02T11:05:04.403Z,4.30
2023-05-02T11:07:34.628Z,4.10
2023-05-02T11:10:17.503Z,4.50
2023-05-02T11:12:51.480Z,4.50
2023-05-02T11:15:29.035Z,3.60
2023-05-02T11:18:11.952Z,4.70
2023-05-02T11:20:44.851Z,4.70
2023-05-02T11:23:22.100Z,4.20
2023-05-02T11:25:52.365Z,5.20
2023-05-02T11:28:39.081Z,4.30
2023-05-02T11:31:27.730Z,4.10
2023-05-02T11:34:02.975Z,3.50
2023-05-02T11:36:35.671Z,3.80
2023-05-02T11:39:07.915Z,4.60
2023-05-02T11:41:42.958Z,3.10
2023-05-02T11:44:10.912Z,3.90
2023-05-02T11:46:40.617Z,4.60
2023-05-02T11:49:09.424Z,3.60
2023-05-02T11:51:37.990Z,3.20
2023-05-02T11:54:07.906Z,3.60
2023-05-02T11:56:36.000Z,3.20
2023-05-02T11:59:04.659Z,2.80
2023-05-02T12:01:32.551Z,2.80
2023-05-02T12:04:05.641Z,2.10
2023-05-02T12:06:34.052Z,3.00
2023-05-02T12:09:09.329Z,2.80
2023-05-02T12:14:06.889Z,3.10
2023-05-02T12:16:35.441Z,2.40
2023-05-02T12:19:04.298Z,2.80
2023-05-02T12:21:35.808Z,2.70
2023-05-02T12:24:04.074Z,3.20
2023-05-02T12:26:33.600Z,3.50
2023-05-02T12:29:02.921Z,3.00
2023-05-02T12:31:32.248Z,3.30
2023-05-02T12:34:01.289Z,3.40
2023-05-02T12:39:02.799Z,3.30
2023-05-02T12:41:38.630Z,3.80
2023-05-02T12:44:07.779Z,3.30
2023-05-02T12:46:36.500Z,3.10
2023-05-02T12:49:09.653Z,4.80
2023-05-02T12:51:41.221Z,3.50
2023-05-02T12:54:19.855Z,3.90
2023-05-02T12:56:48.980Z,2.90
2023-05-02T12:59:32.491Z,3.60
2023-05-02T13:02:00.812Z,3.10
2023-05-02T13:04:40.253Z,3.60
2023-05-02T13:07:08.091Z,4.60
2023-05-02T13:09:36.141Z,3.40
2023-05-02T13:12:04.709Z,3.60
2023-05-02T13:14:32.782Z,3.10
2023-05-02T13:17:00.785Z,3.30
2023-05-02T13:19:31.374Z,3.90
2023-05-02T13:21:59.573Z,4.00
2023-05-02T13:24:27.494Z,3.80
2023-05-02T13:26:57.888Z,3.70
2023-05-02T13:29:26.769Z,4.40
2023-05-02T13:31:54.477Z,4.30
2023-05-02T13:34:22.365Z,4.60
2023-05-02T13:36:51.181Z,3.70
2023-05-02T13:41:47.554Z,3.40
2023-05-02T13:44:15.679Z,3.30
2023-05-02T13:46:44.375Z,3.70
2023-05-02T13:49:12.321Z,3.30
2023-05-02T13:51:40.100Z,3.20
2023-05-02T13:54:07.893Z,3.20
2023-05-02T13:56:36.205Z,2.90
2023-05-02T13:59:06.079Z,3.00
2023-05-02T14:01:35.516Z,2.40
2023-05-02T14:04:08.722Z,2.00
2023-05-02T14:06:37.917Z,1.90
2023-05-02T14:09:07.289Z,2.40
2023-05-02T14:11:35.211Z,1.50
2023-05-02T14:14:03.030Z,2.10
2023-05-02T14:16:32.735Z,1.90
2023-05-02T14:19:00.504Z,2.00
2023-05-02T14:21:28.289Z,2.20
2023-05-02T14:23:56.110Z,2.60
2023-05-02T14:26:24.241Z,2.40
2023-05-02T14:28:52.005Z,2.70
2023-05-02T14:31:19.769Z,2.80
2023-05-02T14:33:47.621Z,2.80
2023-05-02T14:36:15.526Z,2.50
2023-05-02T14:38:43.485Z,2.40
2023-05-02T14:41:11.340Z,3.50
2023-05-02T14:43:39.642Z,2.60
2023-05-02T14:46:07.409Z,2.70
2023-05-02T14:48:35.194Z,2.80
2023-05-02T14:51:04.228Z,3.20
2023-05-02T14:53:33.544Z,2.60
2023-05-02T14:56:01.278Z,2.80
2023-05-02T14:58:29.196Z,2.90
2023-05-02T15:00:57.022Z,3.30
2023-05-02T15:03:24.908Z,2.90
2023-05-02T15:05:52.966Z,3.00
2023-05-02T15:08:21.175Z,2.70
2023-05-02T15:10:49.026Z,2.60
2023-05-02T15:13:16.983Z,3.10
2023-05-02T15:15:47.546Z,3.20
2023-05-02T15:18:15.357Z,2.60
2023-05-02T15:20:44.561Z,2.80
2023-05-02T15:25:40.120Z,2.70
2023-05-02T15:28:08.177Z,2.90
2023-05-02T15:30:36.032Z,2.40
2023-05-02T15:33:04.092Z,2.30
2023-05-02T15:35:31.907Z,2.70
2023-05-02T15:37:59.749Z,2.40
2023-05-02T15:40:28.477Z,2.40
2023-05-02T15:42:56.333Z,2.60
2023-05-02T15:45:24.115Z,2.80
2023-05-02T15:47:52.294Z,2.70
2023-05-02T15:50:20.265Z,2.40
2023-05-02T15:52:48.029Z,2.70
2023-05-02T15:55:15.928Z,3.10
2023-05-02T15:57:43.665Z,3.20
2023-05-02T16:00:16.746Z,2.90
2023-05-02T16:02:44.686Z,3.00
2023-05-02T16:05:12.656Z,3.10
2023-05-02T16:07:40.494Z,3.00
2023-05-02T16:10:09.380Z,3.40
2023-05-02T16:12:37.241Z,2.60
2023-05-02T16:15:06.230Z,2.90
2023-05-02T16:17:33.993Z,3.10
2023-05-02T16:20:02.356Z,3.60
2023-05-02T16:22:30.816Z,2.80
2023-05-02T16:24:58.568Z,3.10
2023-05-02T16:27:26.733Z,3.50
2023-05-02T16:29:54.664Z,2.70
2023-05-02T16:32:23.683Z,2.80
2023-05-02T16:37:19.793Z,3.00
2023-05-02T16:39:48.079Z,2.60
2023-05-02T16:42:16.419Z,3.30
2023-05-02T16:44:44.689Z,3.40
2023-05-02T16:47:12.472Z,3.10
2023-05-02T16:49:40.342Z,3.00
2023-05-02T16:52:08.061Z,3.00
2023-05-02T16:54:35.973Z,3.30
2023-05-02T16:57:04.104Z,3.40
2023-05-02T16:59:31.955Z,4.20
2023-05-02T17:02:00.123Z,3.30
2023-05-02T17:04:28.505Z,3.30
2023-05-02T17:06:56.261Z,3.40
2023-05-02T17:09:24.488Z,3.20
2023-05-02T17:11:52.593Z,3.60
2023-05-02T17:14:20.902Z,3.10
2023-05-02T17:16:48.716Z,3.10
2023-05-02T17:19:16.702Z,3.80
2023-05-02T17:21:44.444Z,3.70
2023-05-02T17:24:12.393Z,3.70
2023-05-02T17:26:40.989Z,3.40
2023-05-02T17:29:08.874Z,4.00
2023-05-02T17:31:38.101Z,3.50
2023-05-02T17:34:07.100Z,3.60
2023-05-02T17:36:35.614Z,3.90
2023-05-02T17:39:06.993Z,3.20
2023-05-02T17:41:37.715Z,3.20
2023-05-02T17:44:05.606Z,3.50
2023-05-02T17:46:33.628Z,3.80
2023-05-02T17:49:01.618Z,3.50
2023-05-02T17:51:29.442Z,3.40
2023-05-02T17:53:57.445Z,3.70
2023-05-02T17:56:25.160Z,3.30
2023-05-02T17:58:53.791Z,3.30
2023-05-02T18:01:21.608Z,3.60
2023-05-02T18:03:50.016Z,3.20
2023-05-02T18:06:18.678Z,3.20
2023-05-02T18:08:46.472Z,3.30
2023-05-02T18:11:16.579Z,3.60
2023-05-02T18:13:44.993Z,4.10
2023-05-02T18:16:14.033Z,3.60
2023-05-02T18:18:42.197Z,4.00
2023-05-02T18:21:10.570Z,3.40
2023-05-02T18:23:38.485Z,4.40
2023-05-02T18:26:12.122Z,4.30
2023-05-02T18:28:42.686Z,3.20
2023-05-02T18:31:21.157Z,4.30
2023-05-02T18:33:49.378Z,4.50
2023-05-02T18:36:23.541Z,4.10
2023-05-02T18:38:51.318Z,4.40
2023-05-02T18:41:19.200Z,4.60
2023-05-02T18:43:47.318Z,4.90
2023-05-02T18:46:15.168Z,4.10
2023-05-02T18:48:43.475Z,4.60
2023-05-02T18:51:11.291Z,4.10
2023-05-02T18:53:39.100Z,4.30
2023-05-02T18:56:16.160Z,4.10
2023-05-02T18:58:43.939Z,4.00
2023-05-02T19:01:16.073Z,4.90
2023-05-02T19:03:44.312Z,4.60
2023-05-02T19:06:13.510Z,4.90
2023-05-02T19:08:41.436Z,5.00
2023-05-02T19:11:09.361Z,4.50
2023-05-02T19:13:37.616Z,4.10
2023-05-02T19:16:09.932Z,4.10
2023-05-02T19:18:38.939Z,4.60
2023-05-02T19:21:13.987Z,4.20
2023-05-02T19:23:43.277Z,4.50
2023-05-02T19:28:40.550Z,3.70
2023-05-02T19:31:12.743Z,4.10
2023-05-02T19:33:41.050Z,4.10
2023-05-02T19:36:08.893Z,3.70
2023-05-02T19:38:36.583Z,3.90
2023-05-02T19:41:04.353Z,4.20
2023-05-02T19:43:33.144Z,3.90
2023-05-02T19:46:01.392Z,4.00
2023-05-02T19:48:29.159Z,4.50
2023-05-02T19:50:57.037Z,3.80
2023-05-02T19:53:25.269Z,3.90
2023-05-02T19:55:53.468Z,4.20
2023-05-02T19:58:21.155Z,3.20
2023-05-02T20:00:50.145Z,3.70
2023-05-02T20:03:18.819Z,3.50
2023-05-02T20:05:47.950Z,3.50
2023-05-02T20:08:16.479Z,3.90
2023-05-02T20:10:44.830Z,3.10
2023-05-02T20:13:12.622Z,4.00
2023-05-02T20:15:40.288Z,3.60
2023-05-02T20:21:11.883Z,3.90
2023-05-02T20:23:43.610Z,3.60
2023-05-02T20:26:11.380Z,3.80
2023-05-02T20:28:39.111Z,3.70
2023-05-02T20:31:07.140Z,3.30
2023-05-02T20:33:44.752Z,4.30
2023-05-02T20:36:14.883Z,4.40
2023-05-02T20:38:44.635Z,4.40
2023-05-02T20:41:14.062Z,3.90
2023-05-02T20:43:45.001Z,4.10
2023-05-02T20:46:16.358Z,4.30
2023-05-02T20:48:44.296Z,3.90
2023-05-02T20:51:12.123Z,4.20
2023-05-02T20:53:40.140Z,4.20
2023-05-02T20:56:07.993Z,4.10
2023-05-02T20:58:35.792Z,4.10
2023-05-02T21:01:03.641Z,3.30
2023-05-02T21:03:32.096Z,4.50
2023-05-02T21:05:59.882Z,4.00
2023-05-02T21:08:27.654Z,4.00
2023-05-02T21:10:55.509Z,3.70
2023-05-02T21:13:23.547Z,3.80
2023-05-02T21:15:51.531Z,3.40
2023-05-02T21:18:20.816Z,3.30
2023-05-02T21:20:49.144Z,3.20
2023-05-02T21:23:16.830Z,3.60
2023-05-02T21:25:44.603Z,3.50
2023-05-02T21:28:12.613Z,3.90
2023-05-02T21:30:40.402Z,4.10
2023-05-02T21:33:08.232Z,3.50
2023-05-02T21:35:36.050Z,3.90
2023-05-02T21:38:04.125Z,3.70
2023-05-02T21:40:35.096Z,4.00
2023-05-02T21:43:03.034Z,4.10
2023-05-02T21:45:31.233Z,3.70
2023-05-02T21:47:59.180Z,3.20
2023-05-02T21:50:26.951Z,3.50
2023-05-02T21:52:54.852Z,3.90
2023-05-02T21:55:22.810Z,4.10
2023-05-02T21:57:50.535Z,3.70
2023-05-02T22:00:18.609Z,4.00
2023-05-02T22:02:46.635Z,3.10
2023-05-02T22:05:15.687Z,3.50
2023-05-02T22:07:43.467Z,3.90
2023-05-02T22:10:11.957Z,4.00
2023-05-02T22:12:39.699Z,3.60
2023-05-02T22:15:09.595Z,3.50
2023-05-02T22:17:37.488Z,4.00
2023-05-02T22:20:08.194Z,3.70
2023-05-02T22:22:36.067Z,3.40
2023-05-02T22:25:04.182Z,3.70
2023-05-02T22:27:31.959Z,3.40
2023-05-02T22:30:00.118Z,3.90
2023-05-02T22:32:28.139Z,3.90
2023-05-02T22:34:55.871Z,4.00
2023-05-02T22:37:23.693Z,3.70
2023-05-02T22:39:51.591Z,3.40
2023-05-02T22:42:19.339Z,2.70
2023-05-02T22:44:54.672Z,3.20
2023-05-02T22:47:22.916Z,3.70
2023-05-02T22:49:52.486Z,3.90
2023-05-02T22:52:20.815Z,3.80
2023-05-02T22:54:48.824Z,3.80
2023-05-02T22:57:16.573Z,3.40
2023-05-02T22:59:44.288Z,3.20
2023-05-02T23:02:12.523Z,3.30
2023-05-02T23:04:40.531Z,3.40
2023-05-02T23:07:08.422Z,3.00
2023-05-02T23:09:36.243Z,3.20
2023-05-02T23:12:05.651Z,2.80
2023-05-02T23:17:02.769Z,2.50
2023-05-02T23:19:30.796Z,3.20
2023-05-02T23:21:59.448Z,3.50
2023-05-02T23:24:27.909Z,2.50
2023-05-02T23:26:55.727Z,3.00
2023-05-02T23:29:23.595Z,2.60
2023-05-02T23:31:53.662Z,2.30
2023-05-02T23:34:22.005Z,2.00
2023-05-02T23:36:51.793Z,2.30
2023-05-02T23:39:19.532Z,2.80
2023-05-02T23:41:47.429Z,2.30
2023-05-02T23:44:15.216Z,2.30
2023-05-02T23:46:43.242Z,2.70
2023-05-02T23:49:11.223Z,2.70
2023-05-02T23:51:38.975Z,2.90
2023-05-02T23:54:07.597Z,2.90
2023-05-02T23:56:35.651Z,2.50
2023-05-02T23:59:03.667Z,2.30
